Aeroporto :
LOGIN :

Iscrizione | Disclaimer

   EN    FR    IT 

 










Sommario :    VFR   VFR Marginale   IFR   IFR Intensivo   IFR Molto Intensivo
Visibilità : 
Base nubi : 
>= 8 km
>= 3000ft
5 / 8 km
1000 / 3000 ft
1500m / 5 km
500 / 1000 ft
800 / 1500m
200 / 500 ft
< 800m
< 200 ft
Simboli :   Temporali  Nebbia  Neve Forte  Precipitazioni Forti  Vento > 20 kt
SIGMETs :   Varie  Temporali  Ghiacco  Turbolenza  Onda orograficha  Ceneri Vulcaniche






- Altitudine del aeroporto : 1568 ft


ETSB - Büchel AB

ULTIMO METAR :
  • 101220Z AUTO 28008KT 9999 // ////// 16/12 Q1015 ///

METARs OBSOLETI :
  • 101120Z AUTO 29014G27KT 6000 // ////// 16/10 Q1014 ///
  • 101025Z 27012KT 9999 BKN020 BKN050 18/11 Q1013 WHT FCST CANCEL

TAF TAF ETSB
Valido dal 10 a 08 ore il 10 a 17 ore UTC


100720Z 1008/1017 26010G20KT 9999 NSW FEW025 BKN040
TEMPO 1008/1012 25010KT 9999 NSW BKN020 BKN035 BY ETGL



MetMap, La meteo Aeronautica in un colpo d'occhio ! - Copyright ORBIFLY Dicembre 2007 - Disclaimer

ORBIFLY MET'MAP TEAM :

Programmazione e sviluppo : Alexandra Zaïnal
Concezione : Baudouin d'Aumeries
Aiuto per la programmazione : Marc-Olivier Méhu
Supporto tecnico e logistico : Manuel Goepfert
Aiuto per la traduzione : Arnaldo La Scala

Contatto : metmap@orbifly.com




FONTI E CREDITI :

   NOAA